Cementon, New York
Current Conditions -  °F | °C
As of 3:54 AM on Sunday 26 Oct 2014 (Local Time) from KPSF Reporting Station
Overcast Overcast  
Wind Chill: 43°   Ceiling: 7500
Heat Index: 45°   Visibility: 10mi
Dew Point: 42°   Wind: 5mph
Humidity: 90%   Direction: 260°W
Pressure: 29.49"   Gusts: NA
Location:  42.2274°N, 73.9283°W
Report Text: KPSF 260754Z AUTO 26004KT 10SM FEW050 BKN075 OVC095 07/06 A2949 RMK AO2 PK WND 29028/0656 RAB0656E39 SLP977 P0003 T00720056
Loading
Personal Weather Stations






























Interactive Weather Map
Tropical Storm Tracking
New forecast layout! Learn more

10-Day Weather Forecast

Advertisements
Track Severe Weather on mobile